createdAt,value
2023-01-10T00:00:45.680Z,94219.88
2023-01-10T00:03:12.798Z,94233.13
2023-01-10T00:05:40.882Z,94232.56
2023-01-10T00:08:09.546Z,94243.41
2023-01-10T00:10:36.763Z,94236.53
2023-01-10T00:13:21.962Z,94251.19
2023-01-10T00:15:49.319Z,94251.19
2023-01-10T00:18:16.218Z,94247.91
2023-01-10T00:20:44.739Z,94259.94
2023-01-10T00:23:12.307Z,94252.16
2023-01-10T00:25:39.743Z,94264.88
2023-01-10T00:28:19.082Z,94259.94
2023-01-10T00:31:10.120Z,94263.38
2023-01-10T00:33:37.077Z,94280.50
2023-01-10T00:36:07.092Z,94280.75
2023-01-10T00:38:35.791Z,94278.16
2023-01-10T00:41:25.328Z,94282.41
2023-01-10T00:43:58.301Z,94291.44
2023-01-10T00:46:25.709Z,94289.78
2023-01-10T00:48:52.923Z,94294.72
2023-01-10T00:51:19.695Z,94302.78
2023-01-10T00:53:46.547Z,94304.00
2023-01-10T00:56:13.412Z,94310.88
2023-01-10T00:58:40.227Z,94325.94
2023-01-10T01:01:07.110Z,94318.53
2023-01-10T01:03:33.991Z,94329.75
2023-01-10T01:06:06.287Z,94330.56
2023-01-10T01:08:33.760Z,94344.84
2023-01-10T01:11:01.248Z,94351.41
2023-01-10T01:13:28.002Z,94356.59
2023-01-10T01:15:58.592Z,94356.59
2023-01-10T01:18:25.619Z,94359.09
2023-01-10T01:20:58.051Z,94373.59
2023-01-10T01:23:24.923Z,94370.06
2023-01-10T01:25:55.517Z,94377.72
2023-01-10T01:28:23.027Z,94384.72
2023-01-10T01:30:50.590Z,94388.66
2023-01-10T01:33:18.151Z,94402.50
2023-01-10T01:35:49.274Z,94408.81
2023-01-10T01:38:17.022Z,94405.53
2023-01-10T01:40:45.050Z,94416.34
2023-01-10T01:43:32.409Z,94429.75
2023-01-10T01:46:03.294Z,94437.13
2023-01-10T01:48:39.384Z,94429.44
2023-01-10T01:51:15.969Z,94449.47
2023-01-10T01:54:07.677Z,94439.31
2023-01-10T01:56:52.116Z,94446.06
2023-01-10T01:59:43.867Z,94448.94
2023-01-10T02:02:19.221Z,94454.84
2023-01-10T02:04:56.088Z,94461.25
2023-01-10T02:07:25.622Z,94466.59
2023-01-10T02:09:58.872Z,94483.13
2023-01-10T02:12:27.799Z,94472.47
2023-01-10T02:14:54.767Z,94478.66
2023-01-10T02:17:21.649Z,94477.81
2023-01-10T02:19:58.820Z,94475.88
2023-01-10T02:22:56.495Z,94480.16
2023-01-10T02:25:53.903Z,94476.34
2023-01-10T02:28:26.395Z,94479.34
2023-01-10T02:31:11.659Z,94487.56
2023-01-10T02:34:09.151Z,94490.69
2023-01-10T02:36:53.984Z,94505.34
2023-01-10T02:39:39.080Z,94499.19
2023-01-10T02:42:13.367Z,94500.34
2023-01-10T02:45:29.630Z,94516.81
2023-01-10T02:47:57.189Z,94523.69
2023-01-10T02:50:42.112Z,94526.72
2023-01-10T02:53:14.682Z,94540.06
2023-01-10T02:56:19.512Z,94543.19
2023-01-10T02:59:09.076Z,94546.75
2023-01-10T03:02:22.009Z,94548.09
2023-01-10T03:04:54.970Z,94558.50
2023-01-10T03:07:43.300Z,94560.53
2023-01-10T03:10:12.182Z,94566.81
2023-01-10T03:12:59.064Z,94571.31
2023-01-10T03:15:31.962Z,94576.88
2023-01-10T03:18:00.715Z,94583.16
2023-01-10T03:20:31.642Z,94596.16
2023-01-10T03:23:01.468Z,94596.78
2023-01-10T03:25:34.315Z,94617.59
2023-01-10T03:28:06.004Z,94618.78
2023-01-10T03:30:52.761Z,94623.88
2023-01-10T03:33:26.333Z,94629.44
2023-01-10T03:36:42.007Z,94641.59
2023-01-10T03:39:29.467Z,94637.22
2023-01-10T03:42:08.094Z,94651.38
2023-01-10T03:44:52.753Z,94652.34
2023-01-10T03:47:47.224Z,94653.66
2023-01-10T03:50:21.420Z,94663.00
2023-01-10T03:52:48.306Z,94668.19
2023-01-10T03:55:21.442Z,94667.25
2023-01-10T03:57:49.055Z,94672.06
2023-01-10T04:00:17.091Z,94681.66
2023-01-10T04:02:44.530Z,94675.06
2023-01-10T04:05:12.411Z,94673.84
2023-01-10T04:07:39.421Z,94675.25
2023-01-10T04:10:07.733Z,94693.94
2023-01-10T04:12:34.503Z,94702.19
2023-01-10T04:15:01.631Z,94690.88
2023-01-10T04:17:28.407Z,94691.81
2023-01-10T04:19:55.269Z,94701.06
2023-01-10T04:22:22.010Z,94704.78
2023-01-10T04:24:51.269Z,94714.25
2023-01-10T04:27:19.015Z,94707.66
2023-01-10T04:29:45.797Z,94703.97
2023-01-10T04:32:12.963Z,94712.34
2023-01-10T04:34:39.720Z,94711.88
2023-01-10T04:37:06.443Z,94722.56
2023-01-10T04:39:33.199Z,94727.03
2023-01-10T04:42:00.092Z,94715.47
2023-01-10T04:44:26.896Z,94722.31
2023-01-10T04:46:53.685Z,94719.75
2023-01-10T04:49:20.428Z,94721.97
2023-01-10T04:51:47.177Z,94732.63
2023-01-10T04:54:13.927Z,94743.97
2023-01-10T04:56:40.672Z,94741.69
2023-01-10T04:59:07.452Z,94750.69
2023-01-10T05:01:36.505Z,94758.69
2023-01-10T05:04:03.520Z,94760.84
2023-01-10T05:06:30.455Z,94772.41
2023-01-10T05:08:57.561Z,94765.78
2023-01-10T05:11:25.427Z,94770.06
2023-01-10T05:13:52.172Z,94775.16
2023-01-10T05:16:19.224Z,94778.09
2023-01-10T05:18:45.980Z,94789.56
2023-01-10T05:21:14.111Z,94797.84
2023-01-10T05:23:41.198Z,94789.22
2023-01-10T05:26:09.844Z,94814.25
2023-01-10T05:28:37.495Z,94816.16
2023-01-10T05:31:14.947Z,94819.13
2023-01-10T05:33:51.201Z,94834.94
2023-01-10T05:36:19.118Z,94828.31
2023-01-10T05:38:46.486Z,94835.31
2023-01-10T05:41:13.245Z,94842.84
2023-01-10T05:43:40.031Z,94848.75
2023-01-10T05:46:07.027Z,94844.63
2023-01-10T05:48:33.836Z,94864.13
2023-01-10T05:51:00.788Z,94855.84
2023-01-10T05:53:27.715Z,94857.84
2023-01-10T05:56:00.746Z,94871.09
2023-01-10T05:58:28.313Z,94881.50
2023-01-10T06:00:56.795Z,94891.03
2023-01-10T06:03:24.817Z,94898.13
2023-01-10T06:05:51.621Z,94900.88
2023-01-10T06:08:18.453Z,94900.72
2023-01-10T06:10:45.276Z,94892.22
2023-01-10T06:13:12.413Z,94905.00
2023-01-10T06:15:40.096Z,94904.53
2023-01-10T06:18:09.096Z,94906.66
2023-01-10T06:20:37.294Z,94924.72
2023-01-10T06:23:04.907Z,94917.63
2023-01-10T06:25:36.066Z,94920.25
2023-01-10T06:28:03.824Z,94914.69
2023-01-10T06:30:30.615Z,94920.81
2023-01-10T06:33:04.946Z,94941.41
2023-01-10T06:35:32.288Z,94930.63
2023-01-10T06:37:59.617Z,94942.06
2023-01-10T06:40:26.995Z,94937.69
2023-01-10T06:42:53.969Z,94931.22
2023-01-10T06:45:21.198Z,94949.97
2023-01-10T06:47:47.932Z,94952.72
2023-01-10T06:50:14.795Z,94943.16
2023-01-10T06:52:42.570Z,94961.69
2023-01-10T06:55:09.682Z,94967.34
2023-01-10T06:57:38.331Z,94967.09
2023-01-10T07:00:08.289Z,94977.28
2023-01-10T07:02:35.159Z,94989.09
2023-01-10T07:05:02.163Z,94985.78
2023-01-10T07:07:29.033Z,94983.75
2023-01-10T07:09:55.863Z,94979.84
2023-01-10T07:12:22.603Z,94993.75
2023-01-10T07:14:49.348Z,95007.47
2023-01-10T07:17:16.101Z,95002.63
2023-01-10T07:19:42.853Z,95022.59
2023-01-10T07:22:09.593Z,95012.66
2023-01-10T07:24:36.350Z,95031.56
2023-01-10T07:27:03.230Z,95021.41
2023-01-10T07:29:30.039Z,95042.91
2023-01-10T07:31:56.791Z,95051.53
2023-01-10T07:34:23.515Z,95041.69
2023-01-10T07:36:50.275Z,95063.69
2023-01-10T07:39:17.009Z,95048.31
2023-01-10T07:41:43.804Z,95053.75
2023-01-10T07:44:10.604Z,95060.38
2023-01-10T07:46:37.365Z,95056.72
2023-01-10T07:49:04.207Z,95054.47
2023-01-10T07:51:30.922Z,95043.81
2023-01-10T07:53:57.732Z,95044.75
2023-01-10T07:56:24.675Z,95054.69
2023-01-10T07:58:51.544Z,95073.84
2023-01-10T08:01:18.420Z,95075.41
2023-01-10T08:03:45.237Z,95075.03
2023-01-10T08:06:11.963Z,95070.69
2023-01-10T08:08:39.533Z,95082.16
2023-01-10T08:11:06.728Z,95083.31
2023-01-10T08:13:33.768Z,95091.38
2023-01-10T08:16:06.481Z,95100.34
2023-01-10T08:18:33.689Z,95084.59
2023-01-10T08:21:01.095Z,95092.50
2023-01-10T08:23:27.884Z,95105.53
2023-01-10T08:25:55.289Z,95089.19
2023-01-10T08:28:22.131Z,95094.78
2023-01-10T08:30:50.599Z,95106.72
2023-01-10T08:33:17.557Z,95116.75
2023-01-10T08:35:44.424Z,95123.03
2023-01-10T08:38:11.853Z,95120.31
2023-01-10T08:40:39.008Z,95121.78
2023-01-10T08:43:10.399Z,95133.94
2023-01-10T08:45:38.111Z,95132.03
2023-01-10T08:48:06.850Z,95135.84
2023-01-10T08:50:33.724Z,95143.16
2023-01-10T08:53:01.938Z,95151.13
2023-01-10T08:55:31.344Z,95155.16
2023-01-10T08:58:02.304Z,95152.88
2023-01-10T09:00:30.028Z,95141.75
2023-01-10T09:02:57.211Z,95144.88
2023-01-10T09:05:28.417Z,95155.75
2023-01-10T09:08:00.889Z,95150.13
2023-01-10T09:10:29.613Z,95144.53
2023-01-10T09:12:59.938Z,95156.97
2023-01-10T09:15:35.460Z,95159.84
2023-01-10T09:18:06.528Z,95153.00
2023-01-10T09:20:36.211Z,95163.41
2023-01-10T09:23:13.900Z,95164.13
2023-01-10T09:25:40.660Z,95165.56
2023-01-10T09:28:07.437Z,95178.25
2023-01-10T09:30:34.580Z,95175.75
2023-01-10T09:33:01.461Z,95172.91
2023-01-10T09:35:30.355Z,95179.56
2023-01-10T09:38:01.244Z,95184.53
2023-01-10T09:40:35.090Z,95191.66
2023-01-10T09:43:20.332Z,95197.34
2023-01-10T09:46:06.492Z,95198.78
2023-01-10T09:48:51.239Z,95210.41
2023-01-10T09:51:38.421Z,95202.13
2023-01-10T09:54:12.553Z,95206.88
2023-01-10T09:56:40.945Z,95205.81
2023-01-10T09:59:17.339Z,95207.72
2023-01-10T10:01:47.329Z,95202.63
2023-01-10T10:04:40.040Z,95200.53
2023-01-10T10:07:14.353Z,95217.34
2023-01-10T10:09:41.263Z,95206.19
2023-01-10T10:12:41.843Z,95217.69
2023-01-10T10:15:20.599Z,95225.16
2023-01-10T10:18:10.631Z,95226.78
2023-01-10T10:21:31.292Z,95229.41
2023-01-10T10:24:28.020Z,95230.13
2023-01-10T10:27:36.869Z,95232.13
2023-01-10T10:30:42.647Z,95232.63
2023-01-10T10:33:24.303Z,95232.25
2023-01-10T10:36:02.739Z,95233.06
2023-01-10T10:38:36.623Z,95225.88
2023-01-10T10:41:04.141Z,95208.09
2023-01-10T10:43:35.312Z,95212.16
2023-01-10T10:46:15.577Z,95212.88
2023-01-10T10:49:12.082Z,95214.53
2023-01-10T10:51:51.797Z,95213.69
2023-01-10T10:54:19.163Z,95212.16
2023-01-10T10:56:46.562Z,95213.81
2023-01-10T10:59:20.225Z,95219.50
2023-01-10T11:01:49.930Z,95217.84
2023-01-10T11:04:21.830Z,95218.56
2023-01-10T11:06:50.077Z,95208.59
2023-01-10T11:09:25.636Z,95207.41
2023-01-10T11:11:54.358Z,95203.72
2023-01-10T11:14:51.461Z,95205.75
2023-01-10T11:17:27.561Z,95210.59
2023-01-10T11:20:04.138Z,95211.88
2023-01-10T11:22:39.050Z,95208.09
2023-01-10T11:25:14.692Z,95213.19
2023-01-10T11:27:51.165Z,95215.91
2023-01-10T11:30:40.907Z,95205.91
2023-01-10T11:33:23.366Z,95213.03
2023-01-10T11:36:07.190Z,95198.25
2023-01-10T11:38:35.099Z,95208.63
2023-01-10T11:41:19.913Z,95209.09
2023-01-10T11:43:46.642Z,95216.09
2023-01-10T11:46:23.060Z,95212.03
2023-01-10T11:49:06.351Z,95204.41
2023-01-10T11:51:58.595Z,95204.78
2023-01-10T11:54:29.837Z,95216.94
2023-01-10T11:57:10.317Z,95200.13
2023-01-10T11:59:39.254Z,95200.69
2023-01-10T12:02:26.436Z,95205.78
2023-01-10T12:04:56.000Z,95193.44
2023-01-10T12:07:23.300Z,95188.69
2023-01-10T12:10:21.467Z,95186.41
2023-01-10T12:13:00.398Z,95179.66
2023-01-10T12:15:31.986Z,95185.50
2023-01-10T12:18:03.092Z,95177.06
2023-01-10T12:20:34.065Z,95187.16
2023-01-10T12:23:07.135Z,95178.50
2023-01-10T12:25:40.424Z,95180.94
2023-01-10T12:28:22.020Z,95194.19
2023-01-10T12:30:55.127Z,95189.50
2023-01-10T12:33:27.411Z,95184.03
2023-01-10T12:36:13.248Z,95174.16
2023-01-10T12:39:05.466Z,95171.16
2023-01-10T12:42:28.250Z,95170.44
2023-01-10T12:45:31.606Z,95156.75
2023-01-10T12:48:17.372Z,95173.56
2023-01-10T12:50:59.135Z,95155.13
2023-01-10T12:53:34.629Z,95159.34
2023-01-10T12:56:07.876Z,95155.59
2023-01-10T12:59:00.340Z,95150.03
2023-01-10T13:01:33.229Z,95146.41
2023-01-10T13:04:19.364Z,95148.91
2023-01-10T13:06:46.609Z,95140.03
2023-01-10T13:09:26.468Z,95147.88
2023-01-10T13:12:35.501Z,95146.06
2023-01-10T13:15:21.486Z,95143.84
2023-01-10T13:17:54.967Z,95147.88
2023-01-10T13:20:21.597Z,95149.16
2023-01-10T13:22:57.345Z,95150.47
2023-01-10T13:25:38.965Z,95148.56
2023-01-10T13:28:19.083Z,95151.88
2023-01-10T13:30:54.535Z,95154.38
2023-01-10T13:33:33.784Z,95144.03
2023-01-10T13:36:16.937Z,95143.34
2023-01-10T13:38:52.388Z,95138.13
2023-01-10T13:41:38.848Z,95142.28
2023-01-10T13:44:12.960Z,95147.88
2023-01-10T13:46:51.609Z,95142.22
2023-01-10T13:49:40.824Z,95147.66
2023-01-10T13:52:40.055Z,95163.41
2023-01-10T13:55:54.123Z,95152.56
2023-01-10T13:58:42.041Z,95152.44
2023-01-10T14:01:47.144Z,95154.56
2023-01-10T14:04:33.829Z,95144.50
2023-01-10T14:07:40.647Z,95143.41
2023-01-10T14:10:21.151Z,95141.56
2023-01-10T14:13:09.392Z,95143.00
2023-01-10T14:15:47.698Z,95141.19
2023-01-10T14:18:34.156Z,95144.44
2023-01-10T14:21:05.528Z,95137.25
2023-01-10T14:23:36.884Z,95133.44
2023-01-10T14:26:04.705Z,95142.47
2023-01-10T14:28:35.622Z,95142.22
2023-01-10T14:31:13.909Z,95148.41
2023-01-10T14:33:44.004Z,95139.03
2023-01-10T14:36:46.921Z,95146.50
2023-01-10T14:39:16.174Z,95145.09
2023-01-10T14:41:46.969Z,95145.78
2023-01-10T14:44:46.643Z,95138.78
2023-01-10T14:47:35.087Z,95146.22
2023-01-10T14:50:02.852Z,95154.16
2023-01-10T14:52:30.359Z,95152.22
2023-01-10T14:55:03.700Z,95152.22
2023-01-10T14:57:30.913Z,95153.19
2023-01-10T15:00:20.615Z,95142.25
2023-01-10T15:02:49.339Z,95136.44
2023-01-10T15:05:21.575Z,95125.94
2023-01-10T15:07:48.396Z,95122.19
2023-01-10T15:10:25.156Z,95127.91
2023-01-10T15:12:59.230Z,95114.91
2023-01-10T15:15:38.379Z,95100.00
2023-01-10T15:18:20.268Z,95107.81
2023-01-10T15:20:47.460Z,95074.69
2023-01-10T15:23:15.585Z,95081.13
2023-01-10T15:25:44.197Z,95089.44
2023-01-10T15:28:19.756Z,95092.84
2023-01-10T15:30:47.003Z,95088.38
2023-01-10T15:33:20.045Z,95094.44
2023-01-10T15:35:46.863Z,95081.19
2023-01-10T15:38:22.161Z,95083.41
2023-01-10T15:41:04.101Z,95082.81
2023-01-10T15:43:33.047Z,95082.00
2023-01-10T15:46:02.571Z,95068.91
2023-01-10T15:48:43.910Z,95078.13
2023-01-10T15:51:26.127Z,95072.22
2023-01-10T15:54:30.278Z,95078.13
2023-01-10T15:57:06.685Z,95052.56
2023-01-10T15:59:37.390Z,95067.25
2023-01-10T16:02:13.661Z,95071.28
2023-01-10T16:04:40.799Z,95063.25
2023-01-10T16:07:31.439Z,95074.47
2023-01-10T16:10:04.043Z,95072.56
2023-01-10T16:13:00.895Z,95070.53
2023-01-10T16:15:33.348Z,95071.72
2023-01-10T16:18:00.199Z,95067.00
2023-01-10T16:20:41.604Z,95063.44
2023-01-10T16:23:17.453Z,95061.31
2023-01-10T16:25:48.159Z,95063.78
2023-01-10T16:28:18.950Z,95059.16
2023-01-10T16:30:48.739Z,95043.53
2023-01-10T16:33:22.817Z,95054.66
2023-01-10T16:35:52.411Z,95058.66
2023-01-10T16:38:20.307Z,95061.72
2023-01-10T16:41:29.296Z,95063.81
2023-01-10T16:43:56.045Z,95062.59
2023-01-10T16:46:24.030Z,95066.38
2023-01-10T16:48:52.839Z,95061.63
2023-01-10T16:51:22.394Z,95058.56
2023-01-10T16:53:50.450Z,95049.66
2023-01-10T16:56:24.489Z,95059.88
2023-01-10T16:58:53.132Z,95068.84
2023-01-10T17:01:25.009Z,95064.69
2023-01-10T17:03:52.314Z,95050.63
2023-01-10T17:06:19.280Z,95051.53
2023-01-10T17:08:46.495Z,95051.47
2023-01-10T17:11:30.456Z,95038.44
2023-01-10T17:13:58.663Z,95043.75
2023-01-10T17:16:25.499Z,95042.41
2023-01-10T17:18:52.358Z,95051.75
2023-01-10T17:21:22.100Z,95048.66
2023-01-10T17:23:49.557Z,95054.91
2023-01-10T17:26:18.656Z,95039.72
2023-01-10T17:28:46.728Z,95028.88
2023-01-10T17:31:13.487Z,95020.56
2023-01-10T17:33:40.237Z,95037.38
2023-01-10T17:36:07.584Z,95036.66
2023-01-10T17:38:34.401Z,95040.84
2023-01-10T17:41:02.222Z,95041.28
2023-01-10T17:43:31.057Z,95044.59
2023-01-10T17:46:01.295Z,95023.94
2023-01-10T17:48:28.109Z,95027.97
2023-01-10T17:51:00.542Z,95041.47
2023-01-10T17:53:28.242Z,95030.47
2023-01-10T17:55:55.561Z,95029.03
2023-01-10T17:58:22.416Z,95031.63
2023-01-10T18:00:49.415Z,95036.28
2023-01-10T18:03:16.815Z,95019.69
2023-01-10T18:05:57.938Z,95022.50
2023-01-10T18:08:26.243Z,95026.38
2023-01-10T18:11:00.472Z,95018.06
2023-01-10T18:13:31.332Z,95021.19
2023-01-10T18:15:59.675Z,95020.34
2023-01-10T18:18:28.034Z,95022.44
2023-01-10T18:20:58.236Z,95023.47
2023-01-10T18:23:26.832Z,95022.22
2023-01-10T18:26:01.459Z,95027.41
2023-01-10T18:28:41.751Z,95017.25
2023-01-10T18:31:18.133Z,95018.91
2023-01-10T18:33:46.365Z,95025.03
2023-01-10T18:36:17.705Z,95016.81
2023-01-10T18:38:45.985Z,95020.47
2023-01-10T18:41:14.270Z,95008.22
2023-01-10T18:43:41.083Z,95025.56
2023-01-10T18:46:13.041Z,95026.06
2023-01-10T18:48:40.014Z,95017.38
2023-01-10T18:51:09.056Z,95027.31
2023-01-10T18:53:35.816Z,95013.75
2023-01-10T18:56:05.748Z,95013.22
2023-01-10T18:58:35.615Z,95002.31
2023-01-10T19:01:14.423Z,94996.94
2023-01-10T19:03:42.613Z,95000.44
2023-01-10T19:06:12.649Z,95003.28
2023-01-10T19:08:40.441Z,95009.47
2023-01-10T19:11:16.693Z,95005.22
2023-01-10T19:13:45.456Z,94996.28
2023-01-10T19:16:22.179Z,94986.25
2023-01-10T19:18:57.378Z,94985.09
2023-01-10T19:21:26.130Z,94980.88
2023-01-10T19:23:56.682Z,94985.50
2023-01-10T19:26:24.880Z,94971.09
2023-01-10T19:28:51.993Z,94976.56
2023-01-10T19:31:26.155Z,94983.22
2023-01-10T19:33:53.914Z,94981.56
2023-01-10T19:36:23.315Z,94972.88
2023-01-10T19:38:55.754Z,94967.66
2023-01-10T19:41:23.736Z,94959.94
2023-01-10T19:43:58.981Z,94970.94
2023-01-10T19:46:27.077Z,94962.63
2023-01-10T19:48:56.270Z,94957.88
2023-01-10T19:51:23.053Z,94960.25
2023-01-10T19:53:49.894Z,94956.72
2023-01-10T19:56:21.995Z,94957.44
2023-01-10T19:58:50.243Z,94954.94
2023-01-10T20:01:24.068Z,94963.19
2023-01-10T20:03:51.237Z,94953.25
2023-01-10T20:06:24.752Z,94953.53
2023-01-10T20:08:54.141Z,94942.81
2023-01-10T20:11:24.002Z,94951.47
2023-01-10T20:13:52.832Z,94943.38
2023-01-10T20:16:23.304Z,94948.94
2023-01-10T20:18:51.993Z,94957.25
2023-01-10T20:21:20.187Z,94940.25
2023-01-10T20:23:47.038Z,94946.16
2023-01-10T20:26:20.943Z,94948.78
2023-01-10T20:28:48.970Z,94941.97
2023-01-10T20:31:21.913Z,94949.75
2023-01-10T20:33:49.278Z,94946.72
2023-01-10T20:36:19.372Z,94942.00
2023-01-10T20:38:46.178Z,94937.63
2023-01-10T20:41:23.575Z,94946.41
2023-01-10T20:43:51.220Z,94940.97
2023-01-10T20:46:27.971Z,94938.50
2023-01-10T20:48:56.679Z,94945.09
2023-01-10T20:51:27.768Z,94937.13
2023-01-10T20:53:55.257Z,94934.03
2023-01-10T20:56:27.929Z,94925.31
2023-01-10T20:58:55.945Z,94928.22
2023-01-10T21:01:34.131Z,94926.13
2023-01-10T21:04:06.440Z,94919.88
2023-01-10T21:06:35.022Z,94924.13
2023-01-10T21:09:02.067Z,94915.13
2023-01-10T21:11:28.804Z,94925.31
2023-01-10T21:13:55.565Z,94917.16
2023-01-10T21:16:22.856Z,94922.09
2023-01-10T21:18:50.726Z,94916.09
2023-01-10T21:21:22.721Z,94904.53
2023-01-10T21:23:49.928Z,94915.63
2023-01-10T21:26:17.152Z,94922.13
2023-01-10T21:28:49.129Z,94911.38
2023-01-10T21:31:19.748Z,94918.00
2023-01-10T21:33:49.465Z,94932.28
2023-01-10T21:36:17.561Z,94921.31
2023-01-10T21:38:45.125Z,94928.66
2023-01-10T21:41:37.145Z,94920.25
2023-01-10T21:44:05.367Z,94924.16
2023-01-10T21:46:32.297Z,94905.25
2023-01-10T21:48:59.158Z,94907.72
2023-01-10T21:51:25.894Z,94915.41
2023-01-10T21:53:52.632Z,94909.00
2023-01-10T21:56:19.384Z,94912.91
2023-01-10T21:58:48.109Z,94911.13
2023-01-10T22:01:15.613Z,94907.84
2023-01-10T22:03:45.754Z,94904.91
2023-01-10T22:06:13.096Z,94907.59
2023-01-10T22:08:39.867Z,94897.44
2023-01-10T22:11:07.254Z,94908.19
2023-01-10T22:13:34.830Z,94901.59
2023-01-10T22:16:02.720Z,94888.91
2023-01-10T22:18:31.233Z,94909.47
2023-01-10T22:20:59.014Z,94908.19
2023-01-10T22:23:29.016Z,94914.44
2023-01-10T22:26:02.757Z,94905.56
2023-01-10T22:28:29.881Z,94909.72
2023-01-10T22:30:57.210Z,94907.25
2023-01-10T22:33:24.720Z,94905.94
2023-01-10T22:35:51.475Z,94896.84
2023-01-10T22:38:18.175Z,94904.16
2023-01-10T22:40:44.995Z,94899.06
2023-01-10T22:43:11.932Z,94907.69
2023-01-10T22:45:42.826Z,94894.81
2023-01-10T22:48:10.156Z,94896.94
2023-01-10T22:50:36.973Z,94903.56
2023-01-10T22:53:04.243Z,94888.66
2023-01-10T22:55:31.239Z,94892.31
2023-01-10T22:57:57.988Z,94893.16
2023-01-10T23:00:24.745Z,94896.19
2023-01-10T23:02:51.559Z,94894.19
2023-01-10T23:05:18.361Z,94883.19
2023-01-10T23:07:45.095Z,94892.41
2023-01-10T23:10:28.493Z,94878.94
2023-01-10T23:12:56.419Z,94876.34
2023-01-10T23:15:23.221Z,94881.88
2023-01-10T23:17:49.982Z,94880.09
2023-01-10T23:20:17.633Z,94885.78
2023-01-10T23:22:44.484Z,94869.44
2023-01-10T23:25:11.258Z,94871.22
2023-01-10T23:27:41.050Z,94876.06
2023-01-10T23:30:10.717Z,94865.41
2023-01-10T23:32:37.584Z,94862.34
2023-01-10T23:35:04.623Z,94860.13
2023-01-10T23:37:31.328Z,94855.25
2023-01-10T23:39:58.065Z,94853.34
2023-01-10T23:42:24.817Z,94850.63
2023-01-10T23:44:51.588Z,94838.91
2023-01-10T23:47:18.389Z,94852.41
2023-01-10T23:49:45.142Z,94850.50
2023-01-10T23:52:11.889Z,94838.81
2023-01-10T23:54:39.457Z,94838.91
2023-01-10T23:57:06.226Z,94839.88
2023-01-10T23:59:32.937Z,94847.56
